Latest Weather Observations for Mackay

IDQ60801

Issued at 11:42 pm EST Friday 16 November 2018 (issued every 10 minutes, with the page automatically refreshed every 10 minutes)

About weather observations | Map of weather stations | Latest weather observations for QLD | Other Formats
Station Details ID: 033119 Name: MACKAY M.O Lat: -21.12 Lon: 149.22 Height: 30.26 m
Data from the previous 72 hours. | See also: Recent months at Mackay
Date/Time
EST
Temp
°C
App
Temp
°C
Dew
Point
°C
Rel
Hum
%
Delta-T
°C
Wind Press
QNH
hPa
Press
MSL
hPa
Rain since
9am
mm
Dir  Spd
km/h
Gust
km/h
Spd
kts
Gust
kts
16/11:30pm 24.0 24.8 18.2 70 3.6 E 11 15 6 8 1014.5 1014.3 0.0
16/11:00pm 24.3 25.5 18.2 68 3.8 E 9 17 5 9 1014.8 1014.6 0.0
16/10:30pm 24.0 25.2 18.2 70 3.7 ENE 9 17 5 9 1014.9 1014.7 0.0
16/10:00pm 24.2 25.1 18.4 70 3.7 E 11 15 6 8 1015.0 1014.8 0.0
16/09:30pm 24.4 25.1 17.9 67 4.1 E 11 17 6 9 1014.9 1014.7 0.0
16/09:00pm 24.5 25.0 18.4 69 3.9 E 13 20 7 11 1014.9 1014.7 0.0
16/08:30pm 24.4 24.9 18.3 69 3.9 E 13 19 7 10 1014.6 1014.4 0.0
16/08:00pm 24.6 25.7 18.1 67 4.1 E 9 13 5 7 1014.6 1014.4 0.0
16/07:30pm 24.6 24.9 17.8 66 4.3 ENE 13 19 7 10 1014.4 1014.2 0.0
16/07:00pm 24.6 25.4 18.1 67 4.1 ENE 11 17 6 9 1014.0 1013.8 0.0
16/06:30pm 24.8 25.7 18.3 67 4.1 ENE 11 20 6 11 1013.7 1013.5 0.0
16/06:00pm 25.4 25.7 17.8 62 4.8 ENE 13 20 7 11 1013.5 1013.3 0.0
16/05:30pm 26.2 26.7 18.3 61 5.0 E 13 22 7 12 1013.2 1013.0 0.0
16/05:00pm 26.9 27.5 18.7 60 5.3 ENE 13 20 7 11 1013.2 1013.0 0.0
16/04:30pm 27.1 27.7 18.7 60 5.4 E 13 20 7 11 1013.2 1013.0 0.0
16/04:00pm 27.2 28.3 18.8 60 5.4 ESE 11 20 6 11 1013.3 1013.1 0.0
16/03:30pm 27.2 28.1 18.5 59 5.6 ESE 11 17 6 9 1013.3 1013.1 0.0
16/03:00pm 28.3 29.1 19.0 57 6.0 ESE 13 20 7 11 1013.2 1013.0 0.0
16/02:30pm 27.9 28.3 18.9 58 5.8 ESE 15 22 8 12 1013.5 1013.3 0.0
16/02:00pm 28.3 28.7 19.0 57 6.0 ESE 15 22 8 12 1013.8 1013.6 0.0
16/01:30pm 27.6 28.1 18.3 57 5.9 ESE 13 20 7 11 1014.1 1013.9 0.0
16/01:00pm 27.5 27.7 17.7 55 6.2 ESE 13 20 7 11 1014.5 1014.3 0.0
16/12:30pm 28.0 28.4 18.1 55 6.3 E 13 19 7 10 1014.9 1014.7 0.0
16/12:00pm 27.4 27.8 18.1 57 5.9 E 13 19 7 10 1015.1 1014.9 0.0
16/11:30am 27.5 27.8 17.9 55 6.1 ESE 13 20 7 11 1015.5 1015.3 0.0
16/11:00am 28.3 29.1 19.0 57 6.0 E 13 20 7 11 1015.9 1015.7 0.0
16/10:30am 26.7 27.7 18.6 61 5.2 E 11 17 6 9 1016.1 1015.9 0.0
16/10:00am 28.0 29.3 19.2 58 5.7 ESE 11 17 6 9 1016.2 1016.0 0.0
16/09:30am 27.2 28.7 18.8 60 5.4 SE 9 15 5 8 1016.3 1016.1 0.0
16/09:00am 26.5 28.2 18.6 62 5.0 SE 7 13 4 7 1016.2 1016.0 0.0
16/08:30am 25.6 27.0 17.8 62 4.9 SE 7 13 4 7 1016.2 1016.0 0.0
16/08:00am 26.4 28.3 18.5 62 5.0 E 6 11 3 6 1016.2 1016.0 0.0
16/07:30am 24.5 26.5 19.1 72 3.5 SW 7 13 4 7 1016.2 1016.0 0.0
16/07:00am 23.6 25.4 19.5 78 2.6 WSW 9 13 5 7 1016.0 1015.8 0.0
16/06:30am 22.0 23.8 19.5 86 1.6 WSW 9 13 5 7 1015.7 1015.5 0.0
16/06:00am 21.0 22.6 19.1 89 1.2 WSW 9 11 5 6 1015.6 1015.4 0.0
16/05:30am 20.6 22.1 18.9 90 1.1 WSW 9 15 5 8 1015.3 1015.1 0.0
16/05:00am 20.8 22.7 18.9 89 1.2 WSW 7 11 4 6 1015.0 1014.8 0.0
16/04:30am 20.8 22.6 18.7 88 1.3 SW 7 11 4 6 1014.7 1014.5 0.0
16/04:00am 21.6 23.6 18.8 84 1.8 SSE 6 9 3 5 1014.5 1014.3 0.0
16/03:30am 21.3 23.2 19.0 87 1.5 WSW 7 9 4 5 1014.3 1014.1 0.0
16/03:00am 21.1 23.2 18.9 87 1.4 SW 6 13 3 7 1014.3 1014.1 0.0
16/02:30am 21.7 23.7 19.1 85 1.6 WSW 7 11 4 6 1014.3 1014.1 0.0
16/02:00am 22.3 24.7 18.7 80 2.3 WSW 4 9 2 5 1014.3 1014.1 0.0
16/01:30am 23.2 25.2 18.7 76 2.8 ESE 6 15 3 8 1014.6 1014.4 0.0
16/01:00am 24.3 25.9 19.1 73 3.3 E 9 19 5 10 1014.9 1014.7 0.0
16/12:30am 24.4 26.0 19.2 73 3.3 E 9 13 5 7 1015.2 1015.0 0.0
16/12:00am 24.4 25.9 19.7 75 3.0 E 11 17 6 9 1015.7 1015.5 0.0
 
Date/Time
EST
Temp
°C
App
Temp
°C
Dew
Point
°C
Rel
Hum
%
Delta-T
°C
Wind Press
QNH
hPa
Press
MSL
hPa
Rain since
9am
mm
Dir  Spd
km/h
Gust
km/h
Spd
kts
Gust
kts
15/11:30pm 24.4 26.2 19.5 74 3.1 E 9 15 5 8 1016.0 1015.8 0.0
15/11:00pm 24.6 26.1 19.7 74 3.2 E 11 19 6 10 1016.3 1016.1 0.0
15/10:30pm 24.5 25.6 19.6 74 3.2 E 13 20 7 11 1016.3 1016.1 0.0
15/10:00pm 24.8 26.1 20.1 75 3.0 E 13 19 7 10 1016.5 1016.3 0.0
15/09:30pm 24.8 25.9 19.6 73 3.4 E 13 24 7 13 1016.4 1016.2 0.0
15/09:00pm 24.7 25.6 19.3 72 3.5 E 13 20 7 11 1016.3 1016.1 0.0
15/08:30pm 24.8 25.9 19.6 73 3.4 E 13 22 7 12 1016.2 1016.0 0.0
15/08:00pm 24.9 25.8 19.3 71 3.6 ENE 13 20 7 11 1015.8 1015.6 0.0
15/07:30pm 24.9 25.8 19.3 71 3.6 ENE 13 20 7 11 1015.6 1015.4 0.0
15/07:00pm 25.0 25.6 19.4 71 3.6 ENE 15 20 8 11 1015.3 1015.1 0.0
15/06:30pm 25.3 25.7 19.0 68 4.0 E 15 20 8 11 1015.0 1014.8 0.0
15/06:00pm 25.7 25.9 19.3 67 4.1 ENE 17 26 9 14 1014.9 1014.7 0.0
15/05:30pm 26.2 26.4 19.3 65 4.4 E 17 26 9 14 1014.6 1014.4 0.0
15/05:00pm 26.7 27.0 18.8 62 5.1 E 15 24 8 13 1014.4 1014.2 0.0
15/04:30pm 27.1 27.2 19.2 62 5.1 E 17 26 9 14 1014.1 1013.9 0.0
15/04:00pm 27.1 26.6 18.7 60 5.4 E 19 26 10 14 1014.2 1014.0 0.0
15/03:30pm 27.8 28.1 19.6 61 5.3 E 17 24 9 13 1014.4 1014.2 0.0
15/03:00pm 27.4 27.7 19.7 63 5.0 ESE 17 28 9 15 1014.6 1014.4 0.0
15/02:30pm 27.4 27.0 18.1 57 5.9 E 17 26 9 14 1014.7 1014.5 0.0
15/02:00pm 27.5 27.7 19.3 61 5.3 ESE 17 26 9 14 1014.9 1014.7 0.0
15/01:30pm 27.7 28.2 19.2 60 5.5 ESE 15 22 8 12 1015.1 1014.9 0.0
15/01:00pm 28.2 28.9 19.7 60 5.5 ESE 15 24 8 13 1015.5 1015.3 0.0
15/12:30pm 28.0 28.6 19.5 60 5.5 ESE 15 26 8 14 1015.8 1015.6 0.0
15/12:00pm 28.3 28.9 19.5 59 5.7 ESE 15 22 8 12 1016.1 1015.9 0.0
15/11:30am 27.6 28.0 19.1 59 5.5 ESE 15 20 8 11 1016.6 1016.4 0.0
15/11:00am 28.4 29.3 19.3 57 5.9 ESE 13 20 7 11 1016.8 1016.6 0.0
15/10:30am 27.9 28.9 19.4 60 5.5 ESE 13 20 7 11 1017.0 1016.8 0.0
15/10:00am 27.4 27.8 18.9 59 5.5 E 15 20 8 11 1017.2 1017.0 0.0
15/09:30am 27.5 28.8 19.3 61 5.3 ESE 11 17 6 9 1017.5 1017.3 0.0
15/09:00am 27.7 28.6 19.2 60 5.5 ESE 13 17 7 9 1017.4 1017.2 0.0
15/08:30am 26.8 28.4 19.2 63 4.9 ESE 9 13 5 7 1017.1 1016.9 0.0
15/08:00am 25.6 27.4 18.8 66 4.3 SE 7 11 4 6 1017.1 1016.9 0.0
15/07:30am 25.5 27.6 19.4 69 3.9 SW 7 11 4 6 1016.9 1016.7 0.0
15/07:00am 23.8 25.6 19.5 77 2.8 SW 9 13 5 7 1016.6 1016.4 0.0
15/06:30am 22.6 24.2 19.2 81 2.2 WSW 9 15 5 8 1016.2 1016.0 0.0
15/06:00am 21.0 22.4 18.6 86 1.5 WSW 9 11 5 6 1016.0 1015.8 0.0
15/05:30am 21.0 22.7 18.6 86 1.5 WSW 7 13 4 7 1015.7 1015.5 0.0
15/05:00am 21.1 22.5 18.7 86 1.5 WSW 9 13 5 7 1015.4 1015.2 0.0
15/04:30am 20.9 21.8 18.3 85 1.6 WSW 11 15 6 8 1014.9 1014.7 0.0
15/04:00am 21.3 22.9 18.3 83 1.9 SW 7 11 4 6 1014.5 1014.3 0.0
15/03:30am 22.0 23.8 18.2 79 2.4 SW 6 11 3 6 1014.1 1013.9 0.0
15/03:00am 24.0 25.4 18.6 72 3.4 ESE 9 17 5 9 1014.0 1013.8 0.0
15/02:30am 24.2 25.5 18.4 70 3.7 ESE 9 17 5 9 1014.0 1013.8 0.0
15/02:00am 24.3 25.5 18.2 68 3.8 ESE 9 15 5 8 1014.0 1013.8 0.0
15/01:30am 24.4 25.2 19.0 72 3.4 E 13 20 7 11 1014.2 1014.0 0.0
15/01:00am 24.6 25.7 18.8 70 3.7 E 11 20 6 11 1014.4 1014.2 0.0
15/12:30am 24.5 25.3 19.1 72 3.5 E 13 19 7 10 1014.8 1014.6 0.0
15/12:00am 24.5 25.5 18.7 70 3.7 ESE 11 17 6 9 1015.2 1015.0 0.0
 
Date/Time
EST
Temp
°C
App
Temp
°C
Dew
Point
°C
Rel
Hum
%
Delta-T
°C
Wind Press
QNH
hPa
Press
MSL
hPa
Rain since
9am
mm
Dir  Spd
km/h
Gust
km/h
Spd
kts
Gust
kts
14/11:30pm 24.5 26.0 18.9 71 3.6 E 9 17 5 9 1015.6 1015.4 0.0
14/11:00pm 24.5 25.7 19.1 72 3.4 E 11 17 6 9 1015.7 1015.5 0.0
14/10:30pm 24.7 25.7 19.5 73 3.3 E 13 20 7 11 1015.8 1015.6 0.0
14/10:00pm 24.7 25.6 19.3 72 3.5 E 13 19 7 10 1016.1 1015.9 0.0
14/09:30pm 24.7 25.1 19.1 71 3.6 E 15 20 8 11 1016.1 1015.9 0.0
14/09:00pm 24.7 25.1 19.1 71 3.6 E 15 20 8 11 1016.0 1015.8 0.0
14/08:30pm 24.9 25.8 19.3 71 3.6 E 13 20 7 11 1015.8 1015.6 0.0
14/08:00pm 24.8 25.3 19.2 71 3.6 E 15 22 8 12 1015.5 1015.3 0.0
14/07:30pm 24.9 25.1 19.3 71 3.6 E 17 24 9 13 1015.4 1015.2 0.0
14/07:00pm 25.0 25.4 19.1 70 3.8 E 15 22 8 12 1015.1 1014.9 0.0
14/06:30pm 25.0 25.0 18.9 69 3.9 E 17 24 9 13 1014.9 1014.7 0.0
14/06:00pm 25.4 25.6 18.6 66 4.3 E 15 20 8 11 1014.7 1014.5 0.0
14/05:30pm 26.0 25.7 18.2 62 4.9 E 17 20 9 11 1014.3 1014.1 0.0
14/05:00pm 26.7 26.5 18.6 61 5.2 E 17 24 9 13 1014.1 1013.9 0.0
14/04:30pm 27.2 26.8 18.8 60 5.4 E 19 26 10 14 1013.8 1013.6 0.0
14/04:00pm 27.4 27.4 18.9 59 5.5 E 17 26 9 14 1013.9 1013.7 0.0
14/03:30pm 27.5 27.2 18.2 57 5.9 E 17 26 9 14 1013.8 1013.6 0.0
14/03:00pm 28.3 27.7 18.4 55 6.3 E 19 26 10 14 1013.9 1013.7 0.0
14/02:30pm 27.8 27.0 17.9 54 6.3 E 19 30 10 16 1014.0 1013.8 0.0
14/02:00pm 27.4 26.3 17.8 55 6.1 E 20 26 11 14 1014.0 1013.8 0.0
14/01:30pm 27.4 26.9 17.8 55 6.1 E 17 24 9 13 1014.4 1014.2 0.0
14/01:00pm 28.5 28.7 18.6 55 6.4 E 15 24 8 13 1014.6 1014.4 0.0
14/12:30pm 28.2 27.8 18.0 54 6.5 E 17 24 9 13 1015.0 1014.8 0.0
14/12:00pm 27.5 28.3 19.0 59 5.5 E 13 20 7 11 1015.2 1015.0 0.0
14/11:30am 28.8 29.8 19.4 56 6.1 ESE 13 20 7 11 1015.4 1015.2 0.0
14/11:00am 26.6 26.6 18.2 60 5.3 ESE 15 22 8 12 1015.8 1015.6 0.0
14/10:30am 28.6 28.7 19.2 56 6.1 E 17 22 9 12 1016.2 1016.0 0.0
14/10:00am 28.7 29.6 19.3 56 6.1 E 13 22 7 12 1016.2 1016.0 0.0
14/09:30am 28.4 28.7 18.8 56 6.2 E 15 22 8 12 1016.2 1016.0 0.0
14/09:00am 28.3 28.3 18.1 54 6.5 ENE 15 26 8 14 1016.1 1015.9 0.2
14/08:30am 27.0 27.1 18.3 59 5.5 E 15 22 8 12 1016.2 1016.0 0.2
14/08:00am 27.7 28.5 19.0 59 5.6 E 13 20 7 11 1016.2 1016.0 0.2
14/07:30am 27.1 27.7 18.7 60 5.4 E 13 22 7 12 1016.2 1016.0 0.2
14/07:00am 26.3 26.8 18.4 61 5.0 E 13 20 7 11 1015.9 1015.7 0.2
14/06:30am 25.5 25.8 18.7 66 4.3 E 15 22 8 12 1015.5 1015.3 0.2
14/06:00am 25.0 25.6 18.7 68 4.0 E 13 20 7 11 1015.2 1015.0 0.2
14/05:30am 24.4 25.2 19.0 72 3.4 ESE 13 22 7 12 1014.7 1014.5 0.2
14/05:00am 24.4 24.4 19.0 72 3.4 E 17 28 9 15 1014.1 1013.9 0.2
14/04:30am 24.4 23.9 18.6 70 3.7 E 19 32 10 17 1013.7 1013.5 0.2
14/04:00am 24.5 24.7 19.3 73 3.3 E 17 30 9 16 1013.6 1013.4 0.2
14/03:30am 24.5 25.3 19.8 75 3.0 E 15 24 8 13 1013.4 1013.2 0.2
14/03:00am 24.4 24.4 19.0 72 3.4 E 17 28 9 15 1013.4 1013.2 0.2
14/02:30am 24.5 24.2 19.1 72 3.5 E 19 28 10 15 1013.4 1013.2 0.2
14/02:00am 24.6 24.2 19.4 73 3.3 E 20 30 11 16 1013.4 1013.2 0.2
14/01:30am 24.7 24.3 18.9 70 3.7 E 19 30 10 16 1013.4 1013.2 0.2
14/01:00am 24.4 24.4 19.0 72 3.4 E 17 28 9 15 1013.7 1013.5 0.2
14/12:30am 24.6 24.4 19.4 73 3.3 E 19 26 10 14 1014.0 1013.8 0.2
14/12:00am 24.6 25.2 19.4 73 3.3 ESE 15 22 8 12 1014.3 1014.1 0.2

Other Formats:

Comma delimited format used in spreadsheet applications
http://www.bom.gov.au/fwo/IDQ60801/IDQ60801.94367.axf

JavaScript Object Notation format (JSON) in row-major order
http://www.bom.gov.au/fwo/IDQ60801/IDQ60801.94367.json